sensor_id;sensor_type;location;lat;lon;timestamp;temperature;humidity
7292;DHT22;3687;47.648;8.204;2022-08-21T00:00:48;24.70;72.80
7292;DHT22;3687;47.648;8.204;2022-08-21T00:03:14;24.70;72.80
7292;DHT22;3687;47.648;8.204;2022-08-21T00:05:49;24.60;72.70
7292;DHT22;3687;47.648;8.204;2022-08-21T00:08:19;24.70;72.80
7292;DHT22;3687;47.648;8.204;2022-08-21T00:10:45;24.60;72.70
7292;DHT22;3687;47.648;8.204;2022-08-21T00:13:11;24.70;72.80
7292;DHT22;3687;47.648;8.204;2022-08-21T00:15:38;24.70;72.80
7292;DHT22;3687;47.648;8.204;2022-08-21T00:18:05;24.70;72.80
7292;DHT22;3687;47.648;8.204;2022-08-21T00:20:32;24.70;72.90
7292;DHT22;3687;47.648;8.204;2022-08-21T00:22:58;24.70;73.50
7292;DHT22;3687;47.648;8.204;2022-08-21T00:25:24;24.60;72.70
7292;DHT22;3687;47.648;8.204;2022-08-21T00:27:50;24.60;72.70
7292;DHT22;3687;47.648;8.204;2022-08-21T00:30:19;24.60;72.70
7292;DHT22;3687;47.648;8.204;2022-08-21T00:32:45;24.60;72.70
7292;DHT22;3687;47.648;8.204;2022-08-21T00:35:14;24.60;72.70
7292;DHT22;3687;47.648;8.204;2022-08-21T00:37:40;24.60;72.70
7292;DHT22;3687;47.648;8.204;2022-08-21T00:40:10;24.60;72.70
7292;DHT22;3687;47.648;8.204;2022-08-21T00:42:36;24.60;72.70
7292;DHT22;3687;47.648;8.204;2022-08-21T00:45:04;24.60;72.70
7292;DHT22;3687;47.648;8.204;2022-08-21T00:47:30;24.60;72.70
7292;DHT22;3687;47.648;8.204;2022-08-21T00:49:55;24.60;72.70
7292;DHT22;3687;47.648;8.204;2022-08-21T00:52:26;24.60;72.70
7292;DHT22;3687;47.648;8.204;2022-08-21T00:54:53;24.60;72.70
7292;DHT22;3687;47.648;8.204;2022-08-21T00:57:35;24.60;72.70
7292;DHT22;3687;47.648;8.204;2022-08-21T01:00:05;24.60;72.70
7292;DHT22;3687;47.648;8.204;2022-08-21T01:02:31;24.60;72.70
7292;DHT22;3687;47.648;8.204;2022-08-21T01:04:56;24.60;72.70
7292;DHT22;3687;47.648;8.204;2022-08-21T01:07:22;24.60;72.70
7292;DHT22;3687;47.648;8.204;2022-08-21T01:09:48;24.60;72.70
7292;DHT22;3687;47.648;8.204;2022-08-21T01:12:14;24.50;72.60
7292;DHT22;3687;47.648;8.204;2022-08-21T01:14:40;24.60;72.70
7292;DHT22;3687;47.648;8.204;2022-08-21T01:17:09;24.50;72.60
7292;DHT22;3687;47.648;8.204;2022-08-21T01:19:34;24.50;72.60
7292;DHT22;3687;47.648;8.204;2022-08-21T01:22:00;24.60;72.70
7292;DHT22;3687;47.648;8.204;2022-08-21T01:24:26;24.50;72.60
7292;DHT22;3687;47.648;8.204;2022-08-21T01:26:52;24.50;72.60
7292;DHT22;3687;47.648;8.204;2022-08-21T01:32:13;24.50;72.60
7292;DHT22;3687;47.648;8.204;2022-08-21T01:34:42;24.50;72.60
7292;DHT22;3687;47.648;8.204;2022-08-21T01:37:08;24.50;72.60
7292;DHT22;3687;47.648;8.204;2022-08-21T01:39:34;24.50;72.60
7292;DHT22;3687;47.648;8.204;2022-08-21T01:42:01;24.50;72.60
7292;DHT22;3687;47.648;8.204;2022-08-21T01:44:26;24.50;72.60
7292;DHT22;3687;47.648;8.204;2022-08-21T01:46:53;24.50;72.60
7292;DHT22;3687;47.648;8.204;2022-08-21T01:49:19;24.50;72.60
7292;DHT22;3687;47.648;8.204;2022-08-21T01:51:45;24.50;72.60
7292;DHT22;3687;47.648;8.204;2022-08-21T01:54:11;24.50;72.60
7292;DHT22;3687;47.648;8.204;2022-08-21T01:56:40;24.50;72.60
7292;DHT22;3687;47.648;8.204;2022-08-21T01:59:06;24.50;72.60
7292;DHT22;3687;47.648;8.204;2022-08-21T02:01:32;24.50;72.60
7292;DHT22;3687;47.648;8.204;2022-08-21T02:03:58;24.50;72.60
7292;DHT22;3687;47.648;8.204;2022-08-21T02:06:25;24.50;72.60
7292;DHT22;3687;47.648;8.204;2022-08-21T02:08:51;24.50;72.60
7292;DHT22;3687;47.648;8.204;2022-08-21T02:11:17;24.50;72.60
7292;DHT22;3687;47.648;8.204;2022-08-21T02:13:43;24.50;72.60
7292;DHT22;3687;47.648;8.204;2022-08-21T02:16:09;24.50;72.60
7292;DHT22;3687;47.648;8.204;2022-08-21T02:18:35;24.50;72.60
7292;DHT22;3687;47.648;8.204;2022-08-21T02:21:01;24.50;72.60
7292;DHT22;3687;47.648;8.204;2022-08-21T02:23:27;24.50;72.60
7292;DHT22;3687;47.648;8.204;2022-08-21T02:26:04;24.40;72.50
7292;DHT22;3687;47.648;8.204;2022-08-21T02:28:32;24.50;72.60
7292;DHT22;3687;47.648;8.204;2022-08-21T02:30:57;24.40;72.60
7292;DHT22;3687;47.648;8.204;2022-08-21T02:33:23;24.50;72.60
7292;DHT22;3687;47.648;8.204;2022-08-21T02:35:50;24.40;72.60
7292;DHT22;3687;47.648;8.204;2022-08-21T02:38:19;24.40;72.60
7292;DHT22;3687;47.648;8.204;2022-08-21T02:40:47;24.40;72.60
7292;DHT22;3687;47.648;8.204;2022-08-21T02:43:13;24.40;72.50
7292;DHT22;3687;47.648;8.204;2022-08-21T02:45:40;24.40;72.50
7292;DHT22;3687;47.648;8.204;2022-08-21T02:48:09;24.40;72.50
7292;DHT22;3687;47.648;8.204;2022-08-21T02:50:40;24.40;72.60
7292;DHT22;3687;47.648;8.204;2022-08-21T02:53:08;24.40;72.50
7292;DHT22;3687;47.648;8.204;2022-08-21T02:55:35;24.40;72.50
7292;DHT22;3687;47.648;8.204;2022-08-21T02:58:03;24.40;72.60
7292;DHT22;3687;47.648;8.204;2022-08-21T03:00:30;24.40;72.50
7292;DHT22;3687;47.648;8.204;2022-08-21T03:02:56;24.40;72.50
7292;DHT22;3687;47.648;8.204;2022-08-21T03:05:24;24.40;72.60
7292;DHT22;3687;47.648;8.204;2022-08-21T03:07:50;24.40;72.60
7292;DHT22;3687;47.648;8.204;2022-08-21T03:10:18;24.40;72.60
7292;DHT22;3687;47.648;8.204;2022-08-21T03:12:45;24.40;72.60
7292;DHT22;3687;47.648;8.204;2022-08-21T03:15:13;24.30;72.50
7292;DHT22;3687;47.648;8.204;2022-08-21T03:17:39;24.40;72.50
7292;DHT22;3687;47.648;8.204;2022-08-21T03:20:06;24.30;72.40
7292;DHT22;3687;47.648;8.204;2022-08-21T03:22:32;24.30;72.40
7292;DHT22;3687;47.648;8.204;2022-08-21T03:24:58;24.30;72.40
7292;DHT22;3687;47.648;8.204;2022-08-21T03:27:25;24.30;72.40
7292;DHT22;3687;47.648;8.204;2022-08-21T03:29:52;24.30;72.40
7292;DHT22;3687;47.648;8.204;2022-08-21T03:32:18;24.30;72.40
7292;DHT22;3687;47.648;8.204;2022-08-21T03:34:44;24.30;72.40
7292;DHT22;3687;47.648;8.204;2022-08-21T03:37:10;24.30;73.00
7292;DHT22;3687;47.648;8.204;2022-08-21T03:39:36;24.30;72.40
7292;DHT22;3687;47.648;8.204;2022-08-21T03:42:01;24.30;73.00
7292;DHT22;3687;47.648;8.204;2022-08-21T03:44:27;24.30;72.40
7292;DHT22;3687;47.648;8.204;2022-08-21T03:46:57;24.30;72.40
7292;DHT22;3687;47.648;8.204;2022-08-21T03:49:22;24.30;72.40
7292;DHT22;3687;47.648;8.204;2022-08-21T03:51:48;24.30;72.40
7292;DHT22;3687;47.648;8.204;2022-08-21T03:54:14;24.30;72.40
7292;DHT22;3687;47.648;8.204;2022-08-21T03:56:39;24.30;72.40
7292;DHT22;3687;47.648;8.204;2022-08-21T03:59:05;24.30;72.40
7292;DHT22;3687;47.648;8.204;2022-08-21T04:01:31;24.30;72.40
7292;DHT22;3687;47.648;8.204;2022-08-21T04:03:57;24.30;72.40
7292;DHT22;3687;47.648;8.204;2022-08-21T04:06:22;24.30;72.40
7292;DHT22;3687;47.648;8.204;2022-08-21T04:08:48;24.30;72.30
7292;DHT22;3687;47.648;8.204;2022-08-21T04:11:14;24.30;72.70
7292;DHT22;3687;47.648;8.204;2022-08-21T04:13:40;24.30;72.40
7292;DHT22;3687;47.648;8.204;2022-08-21T04:16:06;24.30;72.40
7292;DHT22;3687;47.648;8.204;2022-08-21T04:18:32;24.30;72.40
7292;DHT22;3687;47.648;8.204;2022-08-21T04:20:58;24.30;72.40
7292;DHT22;3687;47.648;8.204;2022-08-21T04:23:25;24.30;72.30
7292;DHT22;3687;47.648;8.204;2022-08-21T04:25:55;24.20;72.30
7292;DHT22;3687;47.648;8.204;2022-08-21T04:28:25;24.20;72.20
7292;DHT22;3687;47.648;8.204;2022-08-21T04:30:52;24.20;72.20
7292;DHT22;3687;47.648;8.204;2022-08-21T04:33:20;24.20;72.20
7292;DHT22;3687;47.648;8.204;2022-08-21T04:35:46;24.20;72.20
7292;DHT22;3687;47.648;8.204;2022-08-21T04:38:11;24.20;72.20
7292;DHT22;3687;47.648;8.204;2022-08-21T04:40:37;24.20;72.10
7292;DHT22;3687;47.648;8.204;2022-08-21T04:43:08;24.20;72.20
7292;DHT22;3687;47.648;8.204;2022-08-21T04:45:40;24.20;72.20
7292;DHT22;3687;47.648;8.204;2022-08-21T04:48:07;24.20;72.20
7292;DHT22;3687;47.648;8.204;2022-08-21T04:50:39;24.20;72.20
7292;DHT22;3687;47.648;8.204;2022-08-21T04:53:10;24.20;72.20
7292;DHT22;3687;47.648;8.204;2022-08-21T04:55:37;24.20;72.10
7292;DHT22;3687;47.648;8.204;2022-08-21T04:58:05;24.20;72.10
7292;DHT22;3687;47.648;8.204;2022-08-21T05:00:32;24.20;72.10
7292;DHT22;3687;47.648;8.204;2022-08-21T05:02:59;24.20;72.10
7292;DHT22;3687;47.648;8.204;2022-08-21T05:05:28;24.20;72.10
7292;DHT22;3687;47.648;8.204;2022-08-21T05:07:55;24.20;72.10
7292;DHT22;3687;47.648;8.204;2022-08-21T05:10:21;24.20;72.00
7292;DHT22;3687;47.648;8.204;2022-08-21T05:12:48;24.20;72.10
7292;DHT22;3687;47.648;8.204;2022-08-21T05:15:14;24.20;72.00
7292;DHT22;3687;47.648;8.204;2022-08-21T05:17:43;24.20;72.00
7292;DHT22;3687;47.648;8.204;2022-08-21T05:20:09;24.20;72.00
7292;DHT22;3687;47.648;8.204;2022-08-21T05:22:36;24.20;72.00
7292;DHT22;3687;47.648;8.204;2022-08-21T05:25:03;24.20;72.00
7292;DHT22;3687;47.648;8.204;2022-08-21T05:27:28;24.20;72.00
7292;DHT22;3687;47.648;8.204;2022-08-21T05:29:55;24.20;72.00
7292;DHT22;3687;47.648;8.204;2022-08-21T05:32:21;24.20;72.00
7292;DHT22;3687;47.648;8.204;2022-08-21T05:34:47;24.20;72.10
7292;DHT22;3687;47.648;8.204;2022-08-21T05:37:12;24.20;72.00
7292;DHT22;3687;47.648;8.204;2022-08-21T05:39:38;24.20;72.00
7292;DHT22;3687;47.648;8.204;2022-08-21T05:42:03;24.20;72.00
7292;DHT22;3687;47.648;8.204;2022-08-21T05:44:29;24.20;72.00
7292;DHT22;3687;47.648;8.204;2022-08-21T05:47:02;24.20;72.00
7292;DHT22;3687;47.648;8.204;2022-08-21T05:49:28;24.20;72.60
7292;DHT22;3687;47.648;8.204;2022-08-21T05:51:53;24.20;71.90
7292;DHT22;3687;47.648;8.204;2022-08-21T05:54:19;24.20;71.90
7292;DHT22;3687;47.648;8.204;2022-08-21T05:56:45;24.20;71.90
7292;DHT22;3687;47.648;8.204;2022-08-21T05:59:10;24.20;71.80
7292;DHT22;3687;47.648;8.204;2022-08-21T06:01:36;24.20;71.90
7292;DHT22;3687;47.648;8.204;2022-08-21T06:04:02;24.20;71.90
7292;DHT22;3687;47.648;8.204;2022-08-21T06:06:27;24.20;71.90
7292;DHT22;3687;47.648;8.204;2022-08-21T06:08:53;24.20;71.90
7292;DHT22;3687;47.648;8.204;2022-08-21T06:11:18;24.20;72.00
7292;DHT22;3687;47.648;8.204;2022-08-21T06:13:44;24.20;71.90
7292;DHT22;3687;47.648;8.204;2022-08-21T06:16:14;24.20;71.90
7292;DHT22;3687;47.648;8.204;2022-08-21T06:18:41;24.20;71.80
7292;DHT22;3687;47.648;8.204;2022-08-21T06:21:07;24.20;71.80
7292;DHT22;3687;47.648;8.204;2022-08-21T06:23:33;24.20;72.50
7292;DHT22;3687;47.648;8.204;2022-08-21T06:26:00;24.20;71.80
7292;DHT22;3687;47.648;8.204;2022-08-21T06:28:27;24.20;71.80
7292;DHT22;3687;47.648;8.204;2022-08-21T06:30:52;24.20;71.90
7292;DHT22;3687;47.648;8.204;2022-08-21T06:33:18;24.20;71.80
7292;DHT22;3687;47.648;8.204;2022-08-21T06:35:43;24.20;71.80
7292;DHT22;3687;47.648;8.204;2022-08-21T06:38:09;24.20;71.80
7292;DHT22;3687;47.648;8.204;2022-08-21T06:40:34;24.20;71.80
7292;DHT22;3687;47.648;8.204;2022-08-21T06:43:09;24.20;71.80
7292;DHT22;3687;47.648;8.204;2022-08-21T06:45:36;24.20;71.80
7292;DHT22;3687;47.648;8.204;2022-08-21T06:48:01;24.20;71.80
7292;DHT22;3687;47.648;8.204;2022-08-21T06:50:27;24.20;71.80
7292;DHT22;3687;47.648;8.204;2022-08-21T06:53:01;24.20;71.80
7292;DHT22;3687;47.648;8.204;2022-08-21T06:55:27;24.20;71.80
7292;DHT22;3687;47.648;8.204;2022-08-21T06:57:53;24.20;71.80
7292;DHT22;3687;47.648;8.204;2022-08-21T07:00:19;24.20;71.80
7292;DHT22;3687;47.648;8.204;2022-08-21T07:02:44;24.20;71.80
7292;DHT22;3687;47.648;8.204;2022-08-21T07:05:10;24.20;71.80
7292;DHT22;3687;47.648;8.204;2022-08-21T07:07:36;24.20;71.80
7292;DHT22;3687;47.648;8.204;2022-08-21T07:10:01;24.20;71.80
7292;DHT22;3687;47.648;8.204;2022-08-21T07:12:27;24.20;71.80
7292;DHT22;3687;47.648;8.204;2022-08-21T07:14:52;24.20;72.50
7292;DHT22;3687;47.648;8.204;2022-08-21T07:17:18;24.20;71.70
7292;DHT22;3687;47.648;8.204;2022-08-21T07:19:43;24.20;71.70
7292;DHT22;3687;47.648;8.204;2022-08-21T07:22:09;24.20;71.70
7292;DHT22;3687;47.648;8.204;2022-08-21T07:24:35;24.20;71.70
7292;DHT22;3687;47.648;8.204;2022-08-21T07:27:00;24.30;71.90
7292;DHT22;3687;47.648;8.204;2022-08-21T07:29:26;24.20;71.70
7292;DHT22;3687;47.648;8.204;2022-08-21T07:31:51;24.30;71.80
7292;DHT22;3687;47.648;8.204;2022-08-21T07:34:17;24.30;71.80
7292;DHT22;3687;47.648;8.204;2022-08-21T07:36:42;24.30;71.80
7292;DHT22;3687;47.648;8.204;2022-08-21T07:39:08;24.30;71.70
7292;DHT22;3687;47.648;8.204;2022-08-21T07:41:34;24.30;71.80
7292;DHT22;3687;47.648;8.204;2022-08-21T07:44:00;24.30;71.70
7292;DHT22;3687;47.648;8.204;2022-08-21T07:46:26;24.30;71.70
7292;DHT22;3687;47.648;8.204;2022-08-21T07:48:52;24.30;71.60
7292;DHT22;3687;47.648;8.204;2022-08-21T07:51:22;24.30;71.60
7292;DHT22;3687;47.648;8.204;2022-08-21T07:53:53;24.30;71.60
7292;DHT22;3687;47.648;8.204;2022-08-21T07:56:20;24.30;71.60
7292;DHT22;3687;47.648;8.204;2022-08-21T07:58:45;24.30;71.60
7292;DHT22;3687;47.648;8.204;2022-08-21T08:01:11;24.30;71.60
7292;DHT22;3687;47.648;8.204;2022-08-21T08:03:37;24.30;71.60
7292;DHT22;3687;47.648;8.204;2022-08-21T08:06:04;24.30;71.50
7292;DHT22;3687;47.648;8.204;2022-08-21T08:08:31;24.40;71.60
7292;DHT22;3687;47.648;8.204;2022-08-21T08:10:57;24.40;71.60
7292;DHT22;3687;47.648;8.204;2022-08-21T08:13:24;24.40;71.60
7292;DHT22;3687;47.648;8.204;2022-08-21T08:15:50;24.40;71.50
7292;DHT22;3687;47.648;8.204;2022-08-21T08:18:15;24.40;71.40
7292;DHT22;3687;47.648;8.204;2022-08-21T08:20:42;24.40;71.40
7292;DHT22;3687;47.648;8.204;2022-08-21T08:23:10;24.40;71.40
7292;DHT22;3687;47.648;8.204;2022-08-21T08:25:36;24.40;71.40
7292;DHT22;3687;47.648;8.204;2022-08-21T08:28:02;24.40;71.40
7292;DHT22;3687;47.648;8.204;2022-08-21T08:30:27;24.30;71.30
7292;DHT22;3687;47.648;8.204;2022-08-21T08:32:53;24.40;71.40
7292;DHT22;3687;47.648;8.204;2022-08-21T08:35:19;24.40;71.40
7292;DHT22;3687;47.648;8.204;2022-08-21T08:37:44;24.40;71.40
7292;DHT22;3687;47.648;8.204;2022-08-21T08:40:18;24.40;71.40
7292;DHT22;3687;47.648;8.204;2022-08-21T08:42:46;24.30;71.30
7292;DHT22;3687;47.648;8.204;2022-08-21T08:45:18;24.40;71.40
7292;DHT22;3687;47.648;8.204;2022-08-21T08:47:52;24.30;71.30
7292;DHT22;3687;47.648;8.204;2022-08-21T08:50:37;24.40;71.40
7292;DHT22;3687;47.648;8.204;2022-08-21T08:53:06;24.30;71.30
7292;DHT22;3687;47.648;8.204;2022-08-21T08:58:01;24.30;71.30
7292;DHT22;3687;47.648;8.204;2022-08-21T09:00:28;24.30;71.30
7292;DHT22;3687;47.648;8.204;2022-08-21T09:02:56;24.30;71.30
7292;DHT22;3687;47.648;8.204;2022-08-21T09:05:42;24.30;71.30
7292;DHT22;3687;47.648;8.204;2022-08-21T09:22:46;24.30;71.20
7292;DHT22;3687;47.648;8.204;2022-08-21T09:25:26;24.30;71.20
7292;DHT22;3687;47.648;8.204;2022-08-21T09:27:52;24.30;71.20
7292;DHT22;3687;47.648;8.204;2022-08-21T09:30:19;24.30;71.20
7292;DHT22;3687;47.648;8.204;2022-08-21T09:32:49;24.30;71.20
7292;DHT22;3687;47.648;8.204;2022-08-21T09:35:18;24.30;71.20
7292;DHT22;3687;47.648;8.204;2022-08-21T09:38:00;24.30;71.20
7292;DHT22;3687;47.648;8.204;2022-08-21T09:43:14;24.30;71.20
7292;DHT22;3687;47.648;8.204;2022-08-21T09:45:42;24.40;71.30
7292;DHT22;3687;47.648;8.204;2022-08-21T09:50:38;24.30;71.10
7292;DHT22;3687;47.648;8.204;2022-08-21T09:53:13;24.30;71.10
7292;DHT22;3687;47.648;8.204;2022-08-21T09:58:35;24.40;71.30
7292;DHT22;3687;47.648;8.204;2022-08-21T10:01:04;24.40;71.30
7292;DHT22;3687;47.648;8.204;2022-08-21T10:03:30;24.40;71.20
7292;DHT22;3687;47.648;8.204;2022-08-21T10:06:05;24.30;71.10
7292;DHT22;3687;47.648;8.204;2022-08-21T10:08:35;24.40;71.20
7292;DHT22;3687;47.648;8.204;2022-08-21T10:11:12;24.40;71.20
7292;DHT22;3687;47.648;8.204;2022-08-21T10:25:23;24.50;71.10
7292;DHT22;3687;47.648;8.204;2022-08-21T10:43:45;24.50;71.10
7292;DHT22;3687;47.648;8.204;2022-08-21T10:49:31;24.50;71.10
7292;DHT22;3687;47.648;8.204;2022-08-21T10:55:22;24.50;71.00
7292;DHT22;3687;47.648;8.204;2022-08-21T10:58:04;24.50;71.00
7292;DHT22;3687;47.648;8.204;2022-08-21T11:03:39;24.50;71.10
7292;DHT22;3687;47.648;8.204;2022-08-21T11:06:13;24.50;71.00
7292;DHT22;3687;47.648;8.204;2022-08-21T11:08:51;24.50;70.90
7292;DHT22;3687;47.648;8.204;2022-08-21T11:11:26;24.50;70.90
7292;DHT22;3687;47.648;8.204;2022-08-21T11:14:08;24.50;70.90
7292;DHT22;3687;47.648;8.204;2022-08-21T11:16:42;24.50;70.90
7292;DHT22;3687;47.648;8.204;2022-08-21T11:19:34;24.60;71.00
7292;DHT22;3687;47.648;8.204;2022-08-21T11:22:26;24.50;70.90
7292;DHT22;3687;47.648;8.204;2022-08-21T11:25:20;24.60;71.00
7292;DHT22;3687;47.648;8.204;2022-08-21T11:27:54;24.60;71.00
7292;DHT22;3687;47.648;8.204;2022-08-21T11:30:21;24.60;70.90
7292;DHT22;3687;47.648;8.204;2022-08-21T11:35:56;24.70;70.90
7292;DHT22;3687;47.648;8.204;2022-08-21T11:38:57;24.70;70.90
7292;DHT22;3687;47.648;8.204;2022-08-21T11:41:34;24.70;70.90
7292;DHT22;3687;47.648;8.204;2022-08-21T11:44:37;24.70;70.90
7292;DHT22;3687;47.648;8.204;2022-08-21T11:50:19;24.70;70.80
7292;DHT22;3687;47.648;8.204;2022-08-21T11:55:50;24.80;70.90
7292;DHT22;3687;47.648;8.204;2022-08-21T11:58:22;24.80;70.90
7292;DHT22;3687;47.648;8.204;2022-08-21T12:01:07;24.80;70.90
7292;DHT22;3687;47.648;8.204;2022-08-21T12:03:40;24.80;70.80
7292;DHT22;3687;47.648;8.204;2022-08-21T12:06:10;24.90;70.90
7292;DHT22;3687;47.648;8.204;2022-08-21T12:08:38;24.90;70.90
7292;DHT22;3687;47.648;8.204;2022-08-21T12:16:37;25.00;70.70
7292;DHT22;3687;47.648;8.204;2022-08-21T12:19:05;25.00;70.70
7292;DHT22;3687;47.648;8.204;2022-08-21T12:21:32;25.00;70.70
7292;DHT22;3687;47.648;8.204;2022-08-21T12:24:05;25.10;70.70
7292;DHT22;3687;47.648;8.204;2022-08-21T12:26:53;25.10;70.70
7292;DHT22;3687;47.648;8.204;2022-08-21T12:29:27;25.10;70.70
7292;DHT22;3687;47.648;8.204;2022-08-21T12:32:00;25.20;70.90
7292;DHT22;3687;47.648;8.204;2022-08-21T12:34:41;25.20;70.90
7292;DHT22;3687;47.648;8.204;2022-08-21T12:38:29;25.20;71.00
7292;DHT22;3687;47.648;8.204;2022-08-21T12:40:28;25.20;71.10
7292;DHT22;3687;47.648;8.204;2022-08-21T12:42:57;25.20;71.00
7292;DHT22;3687;47.648;8.204;2022-08-21T12:45:39;25.30;71.10
7292;DHT22;3687;47.648;8.204;2022-08-21T12:48:22;25.40;71.10
7292;DHT22;3687;47.648;8.204;2022-08-21T12:50:56;25.40;71.00
7292;DHT22;3687;47.648;8.204;2022-08-21T12:53:55;25.40;70.90
7292;DHT22;3687;47.648;8.204;2022-08-21T12:56:26;25.40;70.80
7292;DHT22;3687;47.648;8.204;2022-08-21T12:59:02;25.40;70.80
7292;DHT22;3687;47.648;8.204;2022-08-21T13:01:46;25.40;70.90
7292;DHT22;3687;47.648;8.204;2022-08-21T13:04:18;25.50;71.10
7292;DHT22;3687;47.648;8.204;2022-08-21T13:06:48;25.50;71.00
7292;DHT22;3687;47.648;8.204;2022-08-21T13:09:16;25.50;71.00
7292;DHT22;3687;47.648;8.204;2022-08-21T13:11:45;25.50;70.90
7292;DHT22;3687;47.648;8.204;2022-08-21T13:14:25;25.50;71.00
7292;DHT22;3687;47.648;8.204;2022-08-21T13:16:57;25.50;71.10
7292;DHT22;3687;47.648;8.204;2022-08-21T13:19:23;25.60;71.10
7292;DHT22;3687;47.648;8.204;2022-08-21T13:21:50;25.60;71.10
7292;DHT22;3687;47.648;8.204;2022-08-21T13:24:22;25.60;71.00
7292;DHT22;3687;47.648;8.204;2022-08-21T13:26:48;25.60;71.00
7292;DHT22;3687;47.648;8.204;2022-08-21T13:29:17;25.70;70.90
7292;DHT22;3687;47.648;8.204;2022-08-21T13:31:48;25.70;70.80
7292;DHT22;3687;47.648;8.204;2022-08-21T13:34:15;25.70;70.90
7292;DHT22;3687;47.648;8.204;2022-08-21T13:36:43;25.70;71.00
7292;DHT22;3687;47.648;8.204;2022-08-21T13:39:11;25.70;71.40
7292;DHT22;3687;47.648;8.204;2022-08-21T13:41:42;25.70;71.80
7292;DHT22;3687;47.648;8.204;2022-08-21T13:44:30;25.70;71.40
7292;DHT22;3687;47.648;8.204;2022-08-21T13:46:58;25.80;71.40
7292;DHT22;3687;47.648;8.204;2022-08-21T13:49:30;25.80;71.30
7292;DHT22;3687;47.648;8.204;2022-08-21T13:51:56;25.80;71.20
7292;DHT22;3687;47.648;8.204;2022-08-21T13:54:26;25.90;71.20
7292;DHT22;3687;47.648;8.204;2022-08-21T13:56:53;25.90;71.10
7292;DHT22;3687;47.648;8.204;2022-08-21T13:59:34;26.00;71.10
7292;DHT22;3687;47.648;8.204;2022-08-21T14:02:20;26.10;71.00
7292;DHT22;3687;47.648;8.204;2022-08-21T14:04:59;26.10;71.00
7292;DHT22;3687;47.648;8.204;2022-08-21T14:07:29;26.20;71.00
7292;DHT22;3687;47.648;8.204;2022-08-21T14:09:56;26.20;70.90
7292;DHT22;3687;47.648;8.204;2022-08-21T14:12:35;26.30;71.00
7292;DHT22;3687;47.648;8.204;2022-08-21T14:15:04;26.30;70.90
7292;DHT22;3687;47.648;8.204;2022-08-21T14:17:39;26.30;71.00
7292;DHT22;3687;47.648;8.204;2022-08-21T14:20:09;26.30;71.10
7292;DHT22;3687;47.648;8.204;2022-08-21T14:22:43;26.20;71.10
7292;DHT22;3687;47.648;8.204;2022-08-21T14:31:14;26.10;71.70
7292;DHT22;3687;47.648;8.204;2022-08-21T14:33:41;26.20;71.70
7292;DHT22;3687;47.648;8.204;2022-08-21T14:36:06;26.20;71.60
7292;DHT22;3687;47.648;8.204;2022-08-21T14:38:36;26.20;71.70
7292;DHT22;3687;47.648;8.204;2022-08-21T14:43:38;26.20;72.30
7292;DHT22;3687;47.648;8.204;2022-08-21T14:46:04;26.20;72.30
7292;DHT22;3687;47.648;8.204;2022-08-21T14:48:29;26.20;72.50
7292;DHT22;3687;47.648;8.204;2022-08-21T14:50:55;26.20;72.30
7292;DHT22;3687;47.648;8.204;2022-08-21T14:53:20;26.20;72.00
7292;DHT22;3687;47.648;8.204;2022-08-21T14:55:46;26.30;71.70
7292;DHT22;3687;47.648;8.204;2022-08-21T14:58:30;26.30;71.50
7292;DHT22;3687;47.648;8.204;2022-08-21T15:00:56;26.40;71.50
7292;DHT22;3687;47.648;8.204;2022-08-21T15:03:24;26.40;71.40
7292;DHT22;3687;47.648;8.204;2022-08-21T15:05:50;26.40;71.30
7292;DHT22;3687;47.648;8.204;2022-08-21T15:08:17;26.40;71.30
7292;DHT22;3687;47.648;8.204;2022-08-21T15:10:43;26.40;71.30
7292;DHT22;3687;47.648;8.204;2022-08-21T15:13:09;26.40;71.50
7292;DHT22;3687;47.648;8.204;2022-08-21T15:15:45;26.40;71.70
7292;DHT22;3687;47.648;8.204;2022-08-21T15:18:12;26.30;71.80
7292;DHT22;3687;47.648;8.204;2022-08-21T15:20:38;26.30;71.90
7292;DHT22;3687;47.648;8.204;2022-08-21T15:23:08;26.30;72.00
7292;DHT22;3687;47.648;8.204;2022-08-21T15:25:35;26.30;72.10
7292;DHT22;3687;47.648;8.204;2022-08-21T15:28:01;26.30;72.20
7292;DHT22;3687;47.648;8.204;2022-08-21T15:30:28;26.30;72.30
7292;DHT22;3687;47.648;8.204;2022-08-21T15:32:55;26.30;72.20
7292;DHT22;3687;47.648;8.204;2022-08-21T15:35:21;26.30;72.10
7292;DHT22;3687;47.648;8.204;2022-08-21T15:37:46;26.30;72.00
7292;DHT22;3687;47.648;8.204;2022-08-21T15:40:12;26.30;71.90
7292;DHT22;3687;47.648;8.204;2022-08-21T15:42:40;26.20;71.90
7292;DHT22;3687;47.648;8.204;2022-08-21T15:45:07;26.20;71.80
7292;DHT22;3687;47.648;8.204;2022-08-21T15:47:35;26.30;71.90
7292;DHT22;3687;47.648;8.204;2022-08-21T15:50:03;26.20;71.70
7292;DHT22;3687;47.648;8.204;2022-08-21T15:52:29;26.20;71.80
7292;DHT22;3687;47.648;8.204;2022-08-21T15:54:54;26.20;71.70
7292;DHT22;3687;47.648;8.204;2022-08-21T15:57:22;26.30;71.80
7292;DHT22;3687;47.648;8.204;2022-08-21T15:59:52;26.30;71.70
7292;DHT22;3687;47.648;8.204;2022-08-21T16:02:22;26.30;71.60
7292;DHT22;3687;47.648;8.204;2022-08-21T16:04:48;26.40;71.70
7292;DHT22;3687;47.648;8.204;2022-08-21T16:07:14;26.40;71.60
7292;DHT22;3687;47.648;8.204;2022-08-21T16:09:40;26.50;71.60
7292;DHT22;3687;47.648;8.204;2022-08-21T16:12:06;26.50;71.50
7292;DHT22;3687;47.648;8.204;2022-08-21T16:14:34;26.60;71.50
7292;DHT22;3687;47.648;8.204;2022-08-21T16:17:04;26.60;71.40
7292;DHT22;3687;47.648;8.204;2022-08-21T16:19:29;26.70;71.40
7292;DHT22;3687;47.648;8.204;2022-08-21T16:21:55;26.70;71.40
7292;DHT22;3687;47.648;8.204;2022-08-21T16:24:21;26.80;71.40
7292;DHT22;3687;47.648;8.204;2022-08-21T16:26:48;26.80;71.40
7292;DHT22;3687;47.648;8.204;2022-08-21T16:29:15;26.80;71.30
7292;DHT22;3687;47.648;8.204;2022-08-21T16:31:40;26.80;71.40
7292;DHT22;3687;47.648;8.204;2022-08-21T16:34:06;26.80;71.40
7292;DHT22;3687;47.648;8.204;2022-08-21T16:36:32;26.80;71.60
7292;DHT22;3687;47.648;8.204;2022-08-21T16:38:59;26.80;71.80
7292;DHT22;3687;47.648;8.204;2022-08-21T16:41:30;26.80;72.00
7292;DHT22;3687;47.648;8.204;2022-08-21T16:43:57;26.80;72.20
7292;DHT22;3687;47.648;8.204;2022-08-21T16:46:23;26.70;72.20
7292;DHT22;3687;47.648;8.204;2022-08-21T16:48:49;26.70;72.20
7292;DHT22;3687;47.648;8.204;2022-08-21T16:51:15;26.70;72.30
7292;DHT22;3687;47.648;8.204;2022-08-21T16:53:41;26.60;72.30
7292;DHT22;3687;47.648;8.204;2022-08-21T16:56:08;26.60;72.40
7292;DHT22;3687;47.648;8.204;2022-08-21T16:58:38;26.60;72.50
7292;DHT22;3687;47.648;8.204;2022-08-21T17:01:08;26.60;72.50
7292;DHT22;3687;47.648;8.204;2022-08-21T17:03:44;26.60;72.40
7292;DHT22;3687;47.648;8.204;2022-08-21T17:06:10;26.60;72.50
7292;DHT22;3687;47.648;8.204;2022-08-21T17:08:36;26.60;73.10
7292;DHT22;3687;47.648;8.204;2022-08-21T17:11:12;26.50;72.30
7292;DHT22;3687;47.648;8.204;2022-08-21T17:13:39;26.50;72.20
7292;DHT22;3687;47.648;8.204;2022-08-21T17:16:05;26.50;72.20
7292;DHT22;3687;47.648;8.204;2022-08-21T17:18:31;26.50;72.20
7292;DHT22;3687;47.648;8.204;2022-08-21T17:20:56;26.50;72.10
7292;DHT22;3687;47.648;8.204;2022-08-21T17:23:22;26.50;72.10
7292;DHT22;3687;47.648;8.204;2022-08-21T17:25:50;26.50;72.10
7292;DHT22;3687;47.648;8.204;2022-08-21T17:28:26;26.60;72.20
7292;DHT22;3687;47.648;8.204;2022-08-21T17:30:55;26.50;72.10
7292;DHT22;3687;47.648;8.204;2022-08-21T17:33:21;26.50;72.10
7292;DHT22;3687;47.648;8.204;2022-08-21T17:35:47;26.50;72.10
7292;DHT22;3687;47.648;8.204;2022-08-21T17:38:13;26.50;72.10
7292;DHT22;3687;47.648;8.204;2022-08-21T17:40:39;26.50;72.20